createdAt,value
2022-07-25T00:01:40.127Z,21.10
2022-07-25T00:06:44.573Z,21.11
2022-07-25T00:11:50.016Z,21.10
2022-07-25T00:16:53.944Z,20.98
2022-07-25T00:21:58.632Z,20.87
2022-07-25T00:27:04.452Z,20.93
2022-07-25T00:32:08.432Z,20.95
2022-07-25T00:37:12.454Z,20.97
2022-07-25T00:42:17.874Z,20.93
2022-07-25T00:47:21.813Z,20.90
2022-07-25T00:52:26.352Z,20.82
2022-07-25T00:57:32.810Z,20.76
2022-07-25T01:02:37.012Z,20.68
2022-07-25T01:07:41.697Z,20.65
2022-07-25T01:12:49.691Z,20.55
2022-07-25T01:17:54.006Z,20.59
2022-07-25T01:23:00.457Z,20.70
2022-07-25T01:28:04.608Z,20.68
2022-07-25T01:33:08.897Z,20.65
2022-07-25T01:38:14.889Z,20.57
2022-07-25T01:43:19.435Z,20.48
2022-07-25T01:48:23.641Z,20.48
2022-07-25T01:53:29.101Z,20.40
2022-07-25T01:58:34.265Z,20.34
2022-07-25T02:03:38.390Z,20.28
2022-07-25T02:08:43.944Z,20.18
2022-07-25T02:13:49.016Z,20.10
2022-07-25T02:18:53.145Z,20.08
2022-07-25T02:23:58.741Z,19.99
2022-07-25T02:29:02.696Z,19.85
2022-07-25T02:34:07.142Z,19.80
2022-07-25T02:39:13.424Z,19.88
2022-07-25T02:44:17.331Z,19.85
2022-07-25T02:49:21.694Z,19.80
2022-07-25T02:54:27.237Z,19.64
2022-07-25T02:59:32.320Z,19.61
2022-07-25T03:04:36.819Z,19.62
2022-07-25T03:09:42.552Z,19.58
2022-07-25T03:14:47.035Z,19.58
2022-07-25T03:19:51.275Z,19.46
2022-07-25T03:24:56.739Z,19.48
2022-07-25T03:30:00.765Z,19.56
2022-07-25T03:35:06.073Z,19.47
2022-07-25T03:40:12.834Z,19.50
2022-07-25T03:45:17.898Z,19.57
2022-07-25T03:50:22.042Z,19.43
2022-07-25T03:55:27.797Z,19.47
2022-07-25T04:00:32.133Z,19.45
2022-07-25T04:05:36.045Z,19.47
2022-07-25T04:10:41.685Z,19.45
2022-07-25T04:15:45.900Z,19.46
2022-07-25T04:20:50.344Z,19.45
2022-07-25T04:25:56.067Z,19.58
2022-07-25T04:31:00.050Z,19.61
2022-07-25T04:36:04.314Z,19.72
2022-07-25T04:41:09.859Z,19.78
2022-07-25T04:46:14.038Z,19.81
2022-07-25T04:51:18.537Z,19.89
2022-07-25T04:56:24.234Z,19.96
2022-07-25T05:01:28.736Z,20.04
2022-07-25T05:06:33.206Z,20.16
2022-07-25T05:11:42.473Z,20.29
2022-07-25T05:16:49.831Z,20.34
2022-07-25T05:21:54.290Z,20.54
2022-07-25T05:26:59.685Z,20.71
2022-07-25T05:32:05.836Z,20.90
2022-07-25T05:37:10.883Z,21.04
2022-07-25T05:42:16.447Z,21.23
2022-07-25T05:47:20.485Z,21.38
2022-07-25T05:52:24.405Z,21.61
2022-07-25T05:57:29.867Z,21.78
2022-07-25T06:02:34.037Z,21.92
2022-07-25T06:07:38.244Z,22.11
2022-07-25T06:12:43.929Z,22.30
2022-07-25T06:17:48.044Z,22.50
2022-07-25T06:22:52.219Z,22.84
2022-07-25T06:27:57.648Z,23.26
2022-07-25T06:33:01.959Z,23.76
2022-07-25T06:38:06.378Z,24.41
2022-07-25T06:43:12.041Z,24.97
2022-07-25T06:48:16.563Z,25.75
2022-07-25T06:53:20.843Z,26.38
2022-07-25T06:58:26.604Z,26.92
2022-07-25T07:03:30.762Z,27.73
2022-07-25T07:08:35.456Z,28.50
2022-07-25T07:13:41.224Z,29.52
2022-07-25T07:18:49.112Z,30.13
2022-07-25T07:23:53.920Z,31.16
2022-07-25T07:28:59.437Z,31.19
2022-07-25T07:34:04.029Z,31.09
2022-07-25T07:39:38.071Z,31.16
2022-07-25T07:44:47.580Z,32.13
2022-07-25T07:49:52.745Z,32.19
2022-07-25T07:55:14.483Z,32.16
2022-07-25T08:00:21.061Z,33.11
2022-07-25T08:05:26.879Z,33.27
2022-07-25T08:10:32.848Z,34.55
2022-07-25T08:15:38.602Z,35.31
2022-07-25T08:20:42.865Z,35.60
2022-07-25T08:25:47.885Z,36.24
2022-07-25T08:30:53.623Z,36.05
2022-07-25T08:35:58.842Z,36.06
2022-07-25T08:41:04.566Z,37.88
2022-07-25T08:46:10.642Z,39.13
2022-07-25T08:51:16.081Z,39.13
2022-07-25T08:56:21.354Z,38.60
2022-07-25T09:01:31.534Z,39.57
2022-07-25T09:06:38.591Z,40.79
2022-07-25T09:11:42.842Z,41.96
2022-07-25T09:16:48.487Z,42.43
2022-07-25T09:22:01.722Z,42.90
2022-07-25T09:27:12.476Z,43.98
2022-07-25T09:32:20.821Z,45.06
2022-07-25T09:37:28.041Z,45.53
2022-07-25T09:42:33.414Z,46.10
2022-07-25T09:47:51.930Z,46.09
2022-07-25T09:52:57.405Z,46.32
2022-07-25T09:58:01.622Z,45.22
2022-07-25T10:03:20.674Z,45.77
2022-07-25T10:08:25.878Z,46.97
2022-07-25T10:13:32.559Z,47.29
2022-07-25T10:18:49.605Z,48.09
2022-07-25T10:24:05.597Z,47.59
2022-07-25T10:29:11.731Z,48.71
2022-07-25T10:34:17.482Z,50.32
2022-07-25T10:39:23.082Z,50.41
2022-07-25T10:44:40.362Z,48.79
2022-07-25T10:50:13.886Z,48.85
2022-07-25T10:55:24.420Z,49.94
2022-07-25T11:00:29.142Z,50.70
2022-07-25T11:05:45.630Z,48.43
2022-07-25T11:10:53.810Z,48.38
2022-07-25T11:15:59.493Z,48.33
2022-07-25T11:21:07.995Z,49.11
2022-07-25T11:26:18.285Z,49.53
2022-07-25T11:31:32.804Z,47.99
2022-07-25T11:36:41.795Z,46.00
2022-07-25T11:41:46.196Z,46.55
2022-07-25T11:47:00.213Z,45.66
2022-07-25T11:52:08.393Z,45.56
2022-07-25T11:57:21.763Z,45.86
2022-07-25T12:02:31.237Z,45.73
2022-07-25T12:07:45.687Z,44.12
2022-07-25T12:12:53.273Z,42.83
2022-07-25T12:17:58.933Z,43.31
2022-07-25T12:23:06.374Z,45.62
2022-07-25T12:28:11.568Z,46.26
2022-07-25T12:33:17.239Z,45.21
2022-07-25T12:38:22.757Z,45.99
2022-07-25T12:43:27.599Z,48.90
2022-07-25T12:48:52.788Z,50.03
2022-07-25T12:54:20.074Z,49.37
2022-07-25T12:59:28.782Z,48.33
2022-07-25T13:05:00.359Z,47.24
2022-07-25T13:10:14.393Z,44.57
2022-07-25T13:15:23.559Z,42.52
2022-07-25T13:20:28.890Z,42.58
2022-07-25T13:25:36.500Z,44.28
2022-07-25T13:30:43.918Z,44.23
2022-07-25T13:35:51.222Z,43.97
2022-07-25T13:40:59.094Z,41.68
2022-07-25T13:46:03.667Z,39.69
2022-07-25T13:51:08.220Z,38.48
2022-07-25T13:56:14.483Z,38.98
2022-07-25T14:01:18.916Z,39.62
2022-07-25T14:06:23.446Z,39.09
2022-07-25T14:11:30.882Z,39.06
2022-07-25T14:16:35.267Z,40.35
2022-07-25T14:21:40.740Z,40.39
2022-07-25T14:26:49.221Z,42.36
2022-07-25T14:31:53.844Z,42.34
2022-07-25T14:36:58.197Z,42.18
2022-07-25T14:42:04.626Z,41.13
2022-07-25T14:47:12.631Z,42.42
2022-07-25T14:52:17.366Z,44.21
2022-07-25T14:57:23.062Z,43.67
2022-07-25T15:02:28.366Z,44.20
2022-07-25T15:07:33.064Z,44.96
2022-07-25T15:12:39.793Z,42.95
2022-07-25T15:17:43.757Z,40.05
2022-07-25T15:22:47.746Z,37.95
2022-07-25T15:27:53.183Z,38.93
2022-07-25T15:32:57.527Z,42.03
2022-07-25T15:38:01.652Z,41.97
2022-07-25T15:43:07.130Z,41.10
2022-07-25T15:48:12.477Z,41.16
2022-07-25T15:53:17.363Z,40.48
2022-07-25T15:58:23.608Z,41.76
2022-07-25T16:03:29.713Z,42.18
2022-07-25T16:08:35.924Z,40.87
2022-07-25T16:13:41.835Z,40.78
2022-07-25T16:18:45.917Z,41.78
2022-07-25T16:23:49.989Z,40.66
2022-07-25T16:28:57.758Z,39.71
2022-07-25T16:34:02.005Z,37.50
2022-07-25T16:39:06.386Z,36.93
2022-07-25T16:44:12.011Z,37.92
2022-07-25T16:49:16.470Z,38.87
2022-07-25T16:54:20.466Z,37.17
2022-07-25T16:59:26.069Z,35.08
2022-07-25T17:04:30.118Z,33.94
2022-07-25T17:09:34.185Z,34.25
2022-07-25T17:14:39.858Z,36.03
2022-07-25T17:19:44.170Z,36.73
2022-07-25T17:24:48.527Z,35.91
2022-07-25T17:29:54.042Z,34.25
2022-07-25T17:34:58.003Z,33.53
2022-07-25T17:40:02.089Z,33.07
2022-07-25T17:45:08.605Z,32.60
2022-07-25T17:50:13.338Z,32.49
2022-07-25T17:55:17.831Z,32.17
2022-07-25T18:00:24.964Z,31.69
2022-07-25T18:05:29.125Z,31.67
2022-07-25T18:10:33.390Z,31.24
2022-07-25T18:15:38.965Z,30.89
2022-07-25T18:20:44.302Z,30.60
2022-07-25T18:25:48.477Z,30.60
2022-07-25T18:30:54.951Z,30.15
2022-07-25T18:36:02.873Z,29.81
2022-07-25T18:46:35.051Z,29.34
2022-07-25T18:51:39.893Z,29.11
2022-07-25T18:56:44.353Z,28.75
2022-07-25T19:01:51.016Z,28.47
2022-07-25T19:06:55.229Z,28.20
2022-07-25T19:12:01.057Z,28.26
2022-07-25T19:17:07.192Z,28.17
2022-07-25T19:22:11.503Z,27.97
2022-07-25T19:27:15.439Z,27.77
2022-07-25T19:32:22.414Z,27.67
2022-07-25T19:37:26.634Z,27.51
2022-07-25T19:42:31.165Z,27.28
2022-07-25T19:47:36.489Z,27.01
2022-07-25T19:52:40.688Z,26.68
2022-07-25T19:57:44.906Z,26.50
2022-07-25T20:02:50.638Z,26.37
2022-07-25T20:07:55.273Z,26.38
2022-07-25T20:13:01.590Z,26.34
2022-07-25T20:18:07.250Z,26.19
2022-07-25T20:23:11.304Z,25.99
2022-07-25T20:28:15.583Z,25.78
2022-07-25T20:33:24.814Z,25.88
2022-07-25T20:38:31.047Z,25.78
2022-07-25T20:43:35.784Z,25.84
2022-07-25T20:48:41.270Z,25.89
2022-07-25T20:53:45.356Z,25.82
2022-07-25T20:58:57.435Z,25.73
2022-07-25T21:04:07.290Z,25.65
2022-07-25T21:09:12.051Z,25.33
2022-07-25T21:14:16.200Z,25.09
2022-07-25T21:19:21.722Z,24.82
2022-07-25T21:24:26.375Z,24.71
2022-07-25T21:29:30.386Z,24.46
2022-07-25T21:34:36.056Z,24.28
2022-07-25T21:39:40.530Z,24.15
2022-07-25T21:44:46.027Z,24.19
2022-07-25T21:50:09.363Z,24.02
2022-07-25T21:55:13.480Z,23.98
2022-07-25T22:00:18.144Z,23.80
2022-07-25T22:05:24.058Z,23.64
2022-07-25T22:10:28.364Z,23.52
2022-07-25T22:15:32.810Z,23.60
2022-07-25T22:20:38.748Z,23.47
2022-07-25T22:25:42.832Z,23.64
2022-07-25T22:30:46.807Z,23.51
2022-07-25T22:35:53.023Z,23.57
2022-07-25T22:40:57.082Z,23.36
2022-07-25T22:46:01.539Z,23.44
2022-07-25T22:51:07.364Z,23.50
2022-07-25T22:56:11.593Z,23.51
2022-07-25T23:01:15.863Z,23.41
2022-07-25T23:06:21.991Z,23.25
2022-07-25T23:11:27.297Z,23.37
2022-07-25T23:16:31.307Z,23.11
2022-07-25T23:21:36.785Z,22.89
